createdAt,value
2019-05-26T00:01:45.616Z,11.10
2019-05-26T00:04:15.376Z,11.00
2019-05-26T00:06:45.152Z,11.00
2019-05-26T00:09:14.964Z,11.00
2019-05-26T00:11:44.740Z,11.00
2019-05-26T00:14:14.449Z,10.90
2019-05-26T00:16:44.123Z,10.90
2019-05-26T00:19:13.836Z,10.80
2019-05-26T00:21:43.619Z,10.70
2019-05-26T00:24:13.613Z,10.70
2019-05-26T00:26:43.323Z,10.80
2019-05-26T00:29:13.272Z,10.80
2019-05-26T00:31:43.012Z,10.70
2019-05-26T00:34:12.858Z,10.70
2019-05-26T00:36:42.555Z,10.70
2019-05-26T00:39:12.426Z,10.70
2019-05-26T00:41:42.229Z,10.70
2019-05-26T00:44:12.094Z,10.90
2019-05-26T00:46:41.983Z,11.10
2019-05-26T00:49:11.847Z,11.10
2019-05-26T00:51:41.683Z,11.20
2019-05-26T00:54:11.552Z,11.20
2019-05-26T00:56:41.417Z,11.10
2019-05-26T00:59:11.277Z,11.20
2019-05-26T01:01:41.114Z,11.10
2019-05-26T01:04:11.017Z,11.10
2019-05-26T01:06:41.327Z,11.10
2019-05-26T01:09:11.098Z,11.10
2019-05-26T01:11:40.826Z,11.10
2019-05-26T01:14:10.533Z,11.10
2019-05-26T01:16:40.251Z,11.10
2019-05-26T01:19:11.098Z,11.10
2019-05-26T01:21:40.949Z,11.10
2019-05-26T01:24:10.669Z,11.30
2019-05-26T01:26:42.022Z,11.40
2019-05-26T01:29:11.876Z,11.40
2019-05-26T01:31:41.583Z,11.40
2019-05-26T01:34:11.359Z,11.50
2019-05-26T01:36:41.203Z,11.40
2019-05-26T01:39:11.066Z,11.30
2019-05-26T01:41:40.791Z,11.20
2019-05-26T01:44:10.578Z,11.20
2019-05-26T01:46:40.386Z,11.20
2019-05-26T01:49:10.158Z,11.30
2019-05-26T01:51:39.858Z,11.30
2019-05-26T01:54:10.418Z,11.30
2019-05-26T01:56:40.128Z,11.30
2019-05-26T01:59:10.930Z,11.40
2019-05-26T02:01:40.639Z,11.50
2019-05-26T02:04:10.370Z,11.60
2019-05-26T02:06:40.091Z,11.70
2019-05-26T02:09:09.870Z,11.80
2019-05-26T02:11:39.649Z,11.90
2019-05-26T02:14:09.490Z,12.10
2019-05-26T02:16:39.220Z,12.20
2019-05-26T02:19:08.995Z,12.10
2019-05-26T02:21:39.683Z,12.20
2019-05-26T02:24:09.526Z,12.20
2019-05-26T02:26:39.306Z,12.30
2019-05-26T02:29:09.002Z,12.30
2019-05-26T02:31:38.715Z,12.30
2019-05-26T02:34:08.456Z,12.40
2019-05-26T02:36:38.148Z,12.40
2019-05-26T02:39:08.679Z,12.40
2019-05-26T02:41:38.374Z,12.50
2019-05-26T02:44:08.171Z,12.50
2019-05-26T02:46:37.865Z,12.60
2019-05-26T02:49:07.935Z,12.80
2019-05-26T02:51:37.742Z,12.80
2019-05-26T02:54:07.443Z,12.90
2019-05-26T02:56:37.271Z,12.80
2019-05-26T02:59:07.072Z,12.80
2019-05-26T03:01:37.411Z,12.80
2019-05-26T03:04:07.529Z,12.90
2019-05-26T03:06:37.980Z,12.90
2019-05-26T03:09:21.730Z,13.00
2019-05-26T03:11:40.562Z,13.00
2019-05-26T03:14:11.730Z,13.10
2019-05-26T03:16:43.608Z,13.20
2019-05-26T03:19:16.908Z,13.20
2019-05-26T03:21:48.856Z,13.20
2019-05-26T03:24:20.476Z,13.20
2019-05-26T03:26:50.326Z,13.20
2019-05-26T03:29:20.028Z,13.30
2019-05-26T03:31:49.714Z,13.30
2019-05-26T03:34:19.433Z,13.30
2019-05-26T03:36:49.124Z,13.30
2019-05-26T03:39:18.841Z,13.20
2019-05-26T03:41:48.535Z,13.30
2019-05-26T03:44:18.301Z,13.30
2019-05-26T03:46:48.100Z,13.40
2019-05-26T03:49:17.806Z,13.40
2019-05-26T03:51:47.530Z,13.50
2019-05-26T03:54:17.220Z,13.50
2019-05-26T03:56:47.245Z,13.50
2019-05-26T03:59:16.932Z,13.70
2019-05-26T04:01:46.786Z,13.70
2019-05-26T04:04:16.484Z,13.70
2019-05-26T04:06:46.204Z,13.70
2019-05-26T04:09:15.924Z,13.70
2019-05-26T04:11:45.701Z,13.80
2019-05-26T04:14:15.503Z,13.80
2019-05-26T04:16:45.198Z,14.00
2019-05-26T04:19:14.972Z,14.00
2019-05-26T04:21:44.676Z,14.10
2019-05-26T04:24:14.436Z,14.10
2019-05-26T04:26:44.219Z,14.10
2019-05-26T04:29:13.957Z,14.20
2019-05-26T04:31:43.746Z,14.20
2019-05-26T04:34:13.515Z,14.30
2019-05-26T04:36:43.215Z,14.30
2019-05-26T04:39:13.016Z,14.30
2019-05-26T04:41:42.712Z,14.40
2019-05-26T04:44:14.593Z,14.40
2019-05-26T04:46:44.298Z,14.40
2019-05-26T04:49:14.007Z,14.40
2019-05-26T04:51:43.702Z,14.40
2019-05-26T04:54:13.410Z,14.40
2019-05-26T04:56:43.103Z,14.30
2019-05-26T04:59:12.806Z,14.30
2019-05-26T05:01:42.562Z,14.20
2019-05-26T05:04:12.283Z,14.20
2019-05-26T05:06:41.982Z,14.20
2019-05-26T05:09:11.997Z,14.20
2019-05-26T05:11:41.773Z,14.30
2019-05-26T05:14:11.736Z,14.40
2019-05-26T05:16:41.427Z,14.60
2019-05-26T05:19:11.224Z,14.90
2019-05-26T05:21:43.375Z,15.10
2019-05-26T05:24:13.204Z,15.30
2019-05-26T05:26:42.904Z,15.50
2019-05-26T05:29:12.739Z,15.70
2019-05-26T05:31:42.611Z,15.80
2019-05-26T05:34:12.402Z,16.00
2019-05-26T05:36:42.144Z,16.10
2019-05-26T05:39:11.907Z,16.20
2019-05-26T05:41:42.178Z,16.20
2019-05-26T05:44:12.063Z,16.30
2019-05-26T05:46:42.094Z,16.30
2019-05-26T05:49:11.946Z,16.30
2019-05-26T05:51:41.730Z,16.40
2019-05-26T05:54:11.820Z,16.40
2019-05-26T05:56:41.511Z,16.60
2019-05-26T05:59:11.567Z,16.70
2019-05-26T06:01:41.440Z,16.80
2019-05-26T06:04:11.395Z,16.80
2019-05-26T06:06:41.102Z,16.90
2019-05-26T06:09:11.965Z,16.90
2019-05-26T06:11:41.671Z,16.90
2019-05-26T06:14:11.695Z,16.90
2019-05-26T06:16:41.387Z,16.90
2019-05-26T06:19:11.102Z,17.00
2019-05-26T06:21:40.886Z,17.10
2019-05-26T06:24:10.928Z,17.40
2019-05-26T06:26:41.693Z,17.60
2019-05-26T06:29:11.571Z,17.80
2019-05-26T06:31:41.264Z,17.90
2019-05-26T06:34:11.063Z,18.00
2019-05-26T06:36:40.927Z,18.20
2019-05-26T06:39:10.746Z,18.40
2019-05-26T06:41:40.485Z,18.50
2019-05-26T06:44:10.390Z,18.70
2019-05-26T06:46:40.135Z,18.70
2019-05-26T06:49:29.159Z,18.80
2019-05-26T06:51:58.867Z,18.70
2019-05-26T06:54:28.650Z,18.80
2019-05-26T06:56:58.431Z,18.90
2019-05-26T06:59:28.126Z,18.90
2019-05-26T07:01:59.424Z,19.00
2019-05-26T07:04:29.110Z,19.10
2019-05-26T07:06:59.083Z,19.10
2019-05-26T07:09:28.791Z,19.10
2019-05-26T07:12:00.434Z,19.10
2019-05-26T07:14:31.127Z,18.90
2019-05-26T07:17:00.814Z,18.80
2019-05-26T07:19:30.600Z,18.70
2019-05-26T07:22:00.557Z,18.70
2019-05-26T07:24:30.270Z,18.70
2019-05-26T07:26:59.983Z,18.70
2019-05-26T07:29:29.676Z,18.70
2019-05-26T07:31:59.625Z,18.90
2019-05-26T07:34:29.322Z,18.80
2019-05-26T07:36:59.047Z,18.70
2019-05-26T07:39:29.167Z,18.70
2019-05-26T07:42:10.024Z,18.80
2019-05-26T07:44:30.386Z,18.80
2019-05-26T07:47:00.121Z,18.80
2019-05-26T07:49:29.946Z,18.90
2019-05-26T07:52:00.597Z,19.00
2019-05-26T07:54:30.322Z,19.10
2019-05-26T07:57:00.075Z,19.30
2019-05-26T07:59:29.851Z,19.40
2019-05-26T08:01:59.607Z,19.60
2019-05-26T08:04:29.394Z,19.70
2019-05-26T08:06:59.259Z,19.90
2019-05-26T08:09:28.980Z,20.10
2019-05-26T08:11:58.787Z,20.10
2019-05-26T08:14:28.596Z,19.90
2019-05-26T08:16:58.282Z,19.90
2019-05-26T08:19:27.983Z,19.90
2019-05-26T08:21:57.783Z,20.00
2019-05-26T08:24:27.487Z,20.10
2019-05-26T08:26:57.195Z,20.10
2019-05-26T08:29:26.912Z,20.20
2019-05-26T08:31:56.657Z,20.20
2019-05-26T08:34:26.408Z,20.60
2019-05-26T08:36:56.407Z,20.90
2019-05-26T08:39:27.139Z,21.00
2019-05-26T08:41:56.916Z,21.20
2019-05-26T08:44:26.682Z,21.00
2019-05-26T08:46:56.501Z,21.30
2019-05-26T08:49:26.214Z,21.50
2019-05-26T08:51:56.023Z,21.40
2019-05-26T08:54:25.812Z,21.50
2019-05-26T08:56:55.743Z,21.70
2019-05-26T08:59:25.546Z,21.90
2019-05-26T09:01:55.288Z,22.10
2019-05-26T09:04:25.000Z,22.10
2019-05-26T09:06:54.792Z,21.90
2019-05-26T09:09:24.501Z,21.90
2019-05-26T09:11:54.267Z,22.10
2019-05-26T09:14:25.543Z,22.30
2019-05-26T09:16:55.620Z,22.10
2019-05-26T09:19:25.552Z,22.30
2019-05-26T09:21:55.351Z,22.40
2019-05-26T09:24:25.033Z,22.50
2019-05-26T09:26:54.795Z,22.50
2019-05-26T09:29:24.937Z,22.20
2019-05-26T09:31:54.797Z,22.40
2019-05-26T09:34:26.689Z,22.40
2019-05-26T09:36:57.121Z,22.70
2019-05-26T09:39:27.236Z,23.00
2019-05-26T09:41:56.938Z,22.90
2019-05-26T09:44:26.642Z,22.40
2019-05-26T09:47:10.056Z,22.50
2019-05-26T09:49:39.950Z,22.40
2019-05-26T09:52:09.737Z,22.40
2019-05-26T09:54:39.475Z,22.60
2019-05-26T09:57:09.163Z,22.80
2019-05-26T09:59:38.953Z,23.10
2019-05-26T10:02:08.791Z,23.20
2019-05-26T10:04:38.514Z,23.30
2019-05-26T10:07:11.148Z,23.10
2019-05-26T10:09:39.778Z,23.20
2019-05-26T10:12:09.471Z,23.20
2019-05-26T10:14:39.252Z,23.00
2019-05-26T10:17:09.112Z,23.00
2019-05-26T10:19:38.886Z,23.20
2019-05-26T10:22:08.735Z,23.60
2019-05-26T10:24:38.503Z,23.60
2019-05-26T10:27:08.200Z,23.00
2019-05-26T10:29:37.879Z,22.70
2019-05-26T10:32:07.751Z,22.60
2019-05-26T10:34:37.527Z,22.40
2019-05-26T10:37:07.380Z,22.40
2019-05-26T10:39:37.147Z,22.30
2019-05-26T10:42:06.943Z,22.40
2019-05-26T10:44:36.714Z,22.60
2019-05-26T10:47:06.490Z,22.70
2019-05-26T10:49:36.181Z,22.90
2019-05-26T10:52:06.034Z,23.10
2019-05-26T10:54:35.804Z,23.50
2019-05-26T10:57:05.670Z,23.50
2019-05-26T10:59:36.344Z,23.40
2019-05-26T11:02:06.197Z,23.30
2019-05-26T11:04:35.898Z,23.10
2019-05-26T11:07:05.755Z,23.40
2019-05-26T11:09:35.557Z,23.40
2019-05-26T11:12:05.581Z,23.30
2019-05-26T11:14:35.267Z,23.40
2019-05-26T11:17:05.194Z,23.20
2019-05-26T11:19:34.968Z,23.20
2019-05-26T11:22:05.015Z,23.00
2019-05-26T11:24:34.691Z,23.00
2019-05-26T11:27:10.118Z,23.10
2019-05-26T11:29:36.048Z,23.00
2019-05-26T11:32:05.944Z,23.40
2019-05-26T11:34:35.676Z,23.40
2019-05-26T11:37:05.519Z,23.40
2019-05-26T11:39:35.298Z,22.90
2019-05-26T11:42:13.498Z,22.50
2019-05-26T11:44:36.602Z,22.60
2019-05-26T11:47:06.376Z,22.70
2019-05-26T11:49:36.152Z,22.90
2019-05-26T11:52:06.130Z,22.70
2019-05-26T11:54:36.027Z,22.60
2019-05-26T11:57:05.855Z,22.50
2019-05-26T11:59:35.582Z,22.20
2019-05-26T12:02:05.419Z,21.70
2019-05-26T12:04:35.111Z,22.00
2019-05-26T12:07:05.032Z,22.10
2019-05-26T12:09:34.797Z,22.30
2019-05-26T12:12:04.851Z,22.30
2019-05-26T12:14:35.637Z,22.30
2019-05-26T12:17:05.599Z,22.50
2019-05-26T12:19:35.287Z,22.30
2019-05-26T12:22:05.183Z,22.20
2019-05-26T12:24:34.858Z,22.20
2019-05-26T12:27:04.627Z,22.30
2019-05-26T12:29:34.351Z,22.30
2019-05-26T12:32:04.400Z,22.20
2019-05-26T12:34:34.286Z,22.30
2019-05-26T12:37:04.171Z,22.40
2019-05-26T12:39:33.978Z,22.70
2019-05-26T12:42:03.971Z,23.10
2019-05-26T12:44:46.732Z,23.50
2019-05-26T12:47:06.363Z,23.50
2019-05-26T12:49:36.310Z,23.50
2019-05-26T12:52:06.287Z,23.60
2019-05-26T12:54:35.978Z,23.60
2019-05-26T12:57:05.815Z,23.50
2019-05-26T12:59:35.601Z,23.50
2019-05-26T13:02:05.676Z,23.60
2019-05-26T13:04:35.492Z,23.60
2019-05-26T13:07:05.387Z,23.40
2019-05-26T13:09:36.127Z,23.20
2019-05-26T13:12:06.120Z,23.30
2019-05-26T13:14:35.931Z,23.50
2019-05-26T13:17:05.891Z,23.80
2019-05-26T13:19:35.745Z,24.10
2019-05-26T13:22:08.639Z,23.80
2019-05-26T13:24:38.345Z,23.70
2019-05-26T13:27:08.115Z,23.80
2019-05-26T13:29:38.777Z,23.70
2019-05-26T13:32:08.538Z,23.40
2019-05-26T13:34:38.407Z,23.10
2019-05-26T13:37:08.111Z,22.50
2019-05-26T13:39:37.872Z,22.30
2019-05-26T13:42:07.607Z,22.20
2019-05-26T13:44:37.371Z,22.10
2019-05-26T13:47:07.075Z,21.90
2019-05-26T13:49:36.836Z,22.00
2019-05-26T13:52:06.747Z,22.10
2019-05-26T13:54:36.622Z,22.20
2019-05-26T13:57:07.362Z,22.40
2019-05-26T13:59:37.078Z,22.30
2019-05-26T14:02:07.430Z,22.30
2019-05-26T14:04:37.252Z,22.10
2019-05-26T14:07:07.030Z,22.00
2019-05-26T14:09:36.818Z,22.00
2019-05-26T14:12:06.579Z,21.90
2019-05-26T14:14:36.271Z,21.80
2019-05-26T14:17:05.980Z,21.50
2019-05-26T14:19:37.456Z,21.40
2019-05-26T14:22:07.167Z,21.30
2019-05-26T14:24:45.022Z,21.00
2019-05-26T14:27:08.424Z,20.70
2019-05-26T14:29:38.236Z,20.70
2019-05-26T14:32:08.018Z,20.90
2019-05-26T14:34:37.756Z,20.70
2019-05-26T14:37:07.663Z,20.70
2019-05-26T14:39:37.495Z,20.90
2019-05-26T14:42:07.335Z,20.90
2019-05-26T14:44:37.083Z,20.80
2019-05-26T14:47:06.926Z,20.70
2019-05-26T14:49:36.643Z,20.60
2019-05-26T14:52:06.623Z,20.70
2019-05-26T14:54:36.363Z,20.80
2019-05-26T14:57:06.215Z,20.70
2019-05-26T14:59:35.999Z,20.50
2019-05-26T15:02:05.793Z,20.40
2019-05-26T15:04:36.833Z,20.40
2019-05-26T15:07:06.700Z,20.30
2019-05-26T15:09:36.484Z,20.30
2019-05-26T15:12:06.323Z,20.30
2019-05-26T15:14:36.211Z,20.20
2019-05-26T15:17:06.024Z,19.80
2019-05-26T15:19:35.807Z,19.60
2019-05-26T15:22:05.646Z,19.60
2019-05-26T15:24:35.359Z,19.40
2019-05-26T15:27:06.015Z,19.40
2019-05-26T15:29:35.795Z,19.40
2019-05-26T15:32:05.760Z,19.40
2019-05-26T15:34:35.499Z,19.30
2019-05-26T15:37:06.864Z,19.20
2019-05-26T15:39:36.600Z,19.10
2019-05-26T15:42:08.436Z,19.10
2019-05-26T15:44:38.026Z,19.00
2019-05-26T15:47:07.963Z,19.00
2019-05-26T15:49:37.775Z,19.00
2019-05-26T15:52:07.724Z,18.80
2019-05-26T15:54:38.494Z,18.70
2019-05-26T15:57:08.338Z,18.70
2019-05-26T15:59:38.053Z,18.60
2019-05-26T16:02:07.896Z,18.60
2019-05-26T16:04:44.968Z,18.60
2019-05-26T16:07:13.941Z,18.70
2019-05-26T16:09:43.882Z,18.50
2019-05-26T16:12:13.580Z,18.50
2019-05-26T16:14:45.227Z,18.50
2019-05-26T16:17:14.839Z,18.50
2019-05-26T16:19:44.553Z,18.50
2019-05-26T16:22:14.246Z,18.50
2019-05-26T16:24:43.951Z,18.30
2019-05-26T16:27:19.128Z,18.30
2019-05-26T16:29:46.684Z,18.20
2019-05-26T16:32:18.893Z,18.20
2019-05-26T16:34:48.179Z,18.10
2019-05-26T16:37:17.895Z,18.20
2019-05-26T16:39:47.615Z,18.20
2019-05-26T16:42:18.385Z,18.20
2019-05-26T16:44:48.210Z,18.30
2019-05-26T16:47:17.931Z,18.40
2019-05-26T16:49:47.687Z,18.30
2019-05-26T16:52:17.469Z,18.20
2019-05-26T16:54:47.166Z,18.20
2019-05-26T16:57:16.859Z,18.20
2019-05-26T16:59:46.567Z,18.20
2019-05-26T17:02:16.251Z,18.10
2019-05-26T17:04:46.126Z,17.90
2019-05-26T17:07:15.909Z,17.90
2019-05-26T17:09:45.695Z,17.80
2019-05-26T17:12:15.529Z,17.80
2019-05-26T17:14:47.351Z,17.80
2019-05-26T17:17:18.315Z,17.80
2019-05-26T17:19:48.102Z,17.60
2019-05-26T17:22:17.895Z,17.40
2019-05-26T17:24:47.709Z,17.10
2019-05-26T17:27:17.463Z,16.80
2019-05-26T17:29:47.354Z,16.50
2019-05-26T17:32:17.131Z,16.40
2019-05-26T17:34:46.836Z,16.40
2019-05-26T17:37:16.563Z,16.40
2019-05-26T17:39:46.266Z,16.40
2019-05-26T17:42:16.031Z,16.40
2019-05-26T17:44:45.938Z,16.40
2019-05-26T17:47:29.201Z,16.40
2019-05-26T17:49:47.287Z,16.30
2019-05-26T17:52:16.982Z,16.10
2019-05-26T17:54:46.719Z,15.90
2019-05-26T17:57:18.125Z,15.80
2019-05-26T17:59:47.852Z,15.70
2019-05-26T18:02:17.664Z,15.60
2019-05-26T18:04:47.489Z,15.50
2019-05-26T18:07:17.260Z,15.40
2019-05-26T18:09:47.027Z,15.30
2019-05-26T18:12:16.754Z,15.20
2019-05-26T18:14:46.645Z,15.10
2019-05-26T18:17:16.490Z,15.10
2019-05-26T18:19:46.194Z,15.10
2019-05-26T18:22:15.895Z,15.10
2019-05-26T18:24:54.953Z,15.10
2019-05-26T18:27:17.081Z,15.00
2019-05-26T18:29:48.680Z,15.00
2019-05-26T18:32:18.370Z,14.90
2019-05-26T18:34:48.224Z,14.90
2019-05-26T18:37:18.157Z,15.00
2019-05-26T18:39:47.947Z,15.00
2019-05-26T18:42:17.722Z,15.00
2019-05-26T18:44:47.590Z,14.90
2019-05-26T18:47:19.756Z,14.90
2019-05-26T18:49:49.546Z,14.90
2019-05-26T18:52:19.347Z,14.90
2019-05-26T18:54:49.035Z,14.90
2019-05-26T18:57:18.874Z,14.80
2019-05-26T18:59:48.599Z,14.80
2019-05-26T19:02:18.316Z,14.80
2019-05-26T19:04:48.030Z,14.70
2019-05-26T19:07:17.783Z,14.60
2019-05-26T19:09:47.505Z,14.60
2019-05-26T19:12:17.695Z,14.60
2019-05-26T19:14:47.426Z,14.50
2019-05-26T19:17:17.958Z,14.50
2019-05-26T19:19:47.790Z,14.50
2019-05-26T19:22:17.654Z,14.40
2019-05-26T19:24:47.430Z,14.40
2019-05-26T19:27:17.230Z,14.40
2019-05-26T19:29:47.010Z,14.40
2019-05-26T19:32:16.810Z,14.40
2019-05-26T19:34:46.546Z,14.40
2019-05-26T19:37:17.956Z,14.40
2019-05-26T19:39:47.803Z,14.40
2019-05-26T19:42:17.513Z,14.40
2019-05-26T19:44:47.235Z,14.30
2019-05-26T19:47:17.124Z,14.30
2019-05-26T19:49:47.706Z,14.30
2019-05-26T19:52:17.459Z,14.40
2019-05-26T19:54:48.508Z,14.40
2019-05-26T19:57:18.290Z,14.40
2019-05-26T19:59:48.090Z,14.40
2019-05-26T20:02:19.016Z,14.40
2019-05-26T20:04:48.858Z,14.40
2019-05-26T20:07:18.584Z,14.40
2019-05-26T20:09:48.392Z,14.40
2019-05-26T20:12:18.178Z,14.40
2019-05-26T20:14:47.886Z,14.40
2019-05-26T20:17:17.725Z,14.40
2019-05-26T20:19:47.531Z,14.30
2019-05-26T20:22:17.298Z,14.20
2019-05-26T20:24:47.028Z,14.30
2019-05-26T20:27:16.756Z,14.20
2019-05-26T20:29:47.602Z,14.20
2019-05-26T20:32:17.325Z,14.20
2019-05-26T20:34:47.234Z,14.20
2019-05-26T20:37:16.965Z,14.20
2019-05-26T20:39:46.711Z,14.20
2019-05-26T20:42:16.495Z,14.20
2019-05-26T20:44:46.210Z,14.20
2019-05-26T20:47:15.999Z,14.20
2019-05-26T20:49:46.143Z,14.20
2019-05-26T20:52:16.089Z,14.20
2019-05-26T20:54:45.795Z,14.20
2019-05-26T20:57:15.479Z,14.20
2019-05-26T20:59:45.207Z,14.20
2019-05-26T21:02:14.932Z,14.20
2019-05-26T21:04:44.685Z,14.20
2019-05-26T21:07:14.447Z,14.10
2019-05-26T21:09:44.174Z,14.10
2019-05-26T21:12:13.934Z,14.10
2019-05-26T21:14:43.915Z,14.00
2019-05-26T21:17:13.615Z,14.00
2019-05-26T21:19:43.316Z,14.00
2019-05-26T21:22:13.103Z,14.00
2019-05-26T21:24:42.795Z,14.00
2019-05-26T21:27:13.316Z,14.00
2019-05-26T21:29:43.032Z,14.00
2019-05-26T21:32:12.723Z,14.00
2019-05-26T21:34:42.520Z,14.00
2019-05-26T21:37:12.300Z,14.00
2019-05-26T21:39:41.987Z,14.10
2019-05-26T21:42:11.771Z,14.10
2019-05-26T21:44:41.467Z,14.20
2019-05-26T21:47:11.168Z,14.20
2019-05-26T21:49:40.998Z,14.20
2019-05-26T21:52:10.688Z,14.20
2019-05-26T21:54:41.313Z,14.20
2019-05-26T21:57:11.309Z,14.20
2019-05-26T21:59:41.079Z,14.20
2019-05-26T22:02:10.904Z,14.20
2019-05-26T22:04:40.615Z,14.20
2019-05-26T22:07:10.411Z,14.20
2019-05-26T22:09:40.249Z,14.20
2019-05-26T22:12:10.025Z,14.20
2019-05-26T22:14:39.802Z,14.20
2019-05-26T22:17:09.507Z,14.20
2019-05-26T22:19:39.291Z,14.20
2019-05-26T22:22:08.994Z,14.20
2019-05-26T22:24:38.680Z,14.30
2019-05-26T22:27:08.404Z,14.20
2019-05-26T22:29:38.151Z,14.20
2019-05-26T22:32:07.862Z,14.20
2019-05-26T22:34:38.666Z,14.20
2019-05-26T22:37:08.367Z,14.20
2019-05-26T22:39:38.072Z,14.20
2019-05-26T22:42:07.914Z,14.20
2019-05-26T22:44:37.810Z,14.10
2019-05-26T22:47:07.503Z,14.10
2019-05-26T22:49:38.362Z,14.10
2019-05-26T22:52:08.203Z,14.10
2019-05-26T22:54:38.064Z,14.10
2019-05-26T22:57:07.886Z,14.00
2019-05-26T22:59:37.600Z,14.00
2019-05-26T23:02:07.342Z,14.00
2019-05-26T23:04:37.128Z,14.00
2019-05-26T23:07:06.975Z,14.00
2019-05-26T23:09:37.044Z,14.00
2019-05-26T23:12:06.841Z,14.00
2019-05-26T23:14:36.599Z,13.90
2019-05-26T23:17:06.582Z,13.90
2019-05-26T23:19:36.403Z,13.90
2019-05-26T23:22:06.320Z,13.90
2019-05-26T23:24:36.007Z,13.90
2019-05-26T23:27:05.801Z,13.90
2019-05-26T23:29:35.566Z,13.80
2019-05-26T23:32:05.475Z,13.80
2019-05-26T23:34:35.253Z,13.80
2019-05-26T23:37:05.131Z,13.80
2019-05-26T23:39:34.856Z,13.70
2019-05-26T23:42:04.627Z,13.70
2019-05-26T23:44:34.398Z,13.70
2019-05-26T23:47:04.259Z,13.70
2019-05-26T23:49:34.061Z,13.70
2019-05-26T23:52:03.835Z,13.70
2019-05-26T23:54:33.623Z,13.70
2019-05-26T23:57:03.498Z,13.70
2019-05-26T23:59:33.287Z,13.70
